Time;durP1;ratioP1;P1;durP2;ratioP2;P2;SDS_P1;SDS_P2;PMS_P1;PMS_P2;Temp;Humidity;BMP_temperature;BMP_pressure;BME280_temperature;BME280_humidity;BME280_pressure;Samples;Min_cycle;Max_cycle;Signal;HPM_P1;HPM_P2
2023/01/10 00:01:38;;;;;;;6.72;1.50;;;;;;;3.98;75.12;99760.31;4978873;28;20715;-59
2023/01/10 00:04:05;;;;;;;10.20;1.50;;;;;;;3.99;75.68;99751.81;4979365;28;20787;-59
2023/01/10 00:06:31;;;;;;;14.23;1.42;;;;;;;3.99;75.31;99749.25;4982703;28;20046;-60
2023/01/10 00:08:58;;;;;;;11.63;2.40;;;;;;;3.99;75.42;99746.69;4986140;28;20054;-59
2023/01/10 00:14:12;;;;;;;16.52;1.70;;;;;;;4.00;75.33;99748.41;4976550;28;20050;-59
2023/01/10 00:16:41;;;;;;;9.75;1.40;;;;;;;4.00;75.53;99753.53;4979703;28;20057;-59
2023/01/10 00:19:09;;;;;;;10.45;1.63;;;;;;;3.99;75.61;99756.94;4981472;28;20104;-60
2023/01/10 00:21:36;;;;;;;11.52;1.63;;;;;;;4.00;75.38;99768.91;4978219;28;20528;-60
2023/01/10 00:24:16;;;;;;;8.65;1.25;;;;;;;4.01;75.71;99760.38;4981770;28;20524;-59
2023/01/10 00:26:45;;;;;;;3.92;1.58;;;;;;;4.02;75.60;99756.97;4978762;28;20577;-59
2023/01/10 00:29:12;;;;;;;5.13;1.15;;;;;;;4.01;75.51;99762.94;4978202;28;20046;-59
2023/01/10 00:31:39;;;;;;;14.95;1.67;;;;;;;4.04;75.63;99769.81;4978102;28;20076;-59
2023/01/10 00:34:06;;;;;;;24.52;1.67;;;;;;;4.04;75.51;99770.69;4981284;28;20046;-59
2023/01/10 00:36:33;;;;;;;12.90;1.50;;;;;;;4.04;75.49;99770.69;4981083;28;20105;-59
2023/01/10 00:39:01;;;;;;;4.97;1.45;;;;;;;4.03;75.43;99771.53;4980990;28;20050;-58
2023/01/10 00:44:14;;;;;;;10.88;1.50;;;;;;;3.98;75.52;99775.69;4982887;28;20043;-60
2023/01/10 00:46:41;;;;;;;12.18;1.98;;;;;;;3.99;75.37;99780.00;4981434;28;20499;-59
2023/01/10 00:49:08;;;;;;;10.27;1.20;;;;;;;3.96;75.31;99777.38;4980688;28;20076;-59
2023/01/10 00:51:34;;;;;;;7.38;0.85;;;;;;;3.96;75.28;99767.97;4984673;28;20074;-59
2023/01/10 00:54:01;;;;;;;12.38;1.30;;;;;;;3.96;75.51;99782.50;4984018;28;20076;-58
2023/01/10 00:56:28;;;;;;;12.02;1.13;;;;;;;3.95;75.75;99775.66;4984917;28;20074;-59
2023/01/10 00:58:54;;;;;;;7.40;1.38;;;;;;;3.94;75.57;99776.47;4983994;28;20081;-60
2023/01/10 01:01:21;;;;;;;6.97;1.50;;;;;;;3.92;75.57;99768.75;4986322;28;20062;-59
2023/01/10 01:03:48;;;;;;;6.65;2.03;;;;;;;3.91;75.63;99766.16;4982738;28;20077;-59
2023/01/10 01:06:14;;;;;;;5.72;1.02;;;;;;;3.90;76.12;99756.75;4988189;28;20133;-60
2023/01/10 01:08:41;;;;;;;8.65;0.98;;;;;;;3.90;75.43;99746.50;4985425;28;20085;-59
2023/01/10 01:11:07;;;;;;;9.10;1.45;;;;;;;3.89;75.47;99752.47;4979897;28;20050;-59
2023/01/10 01:13:35;;;;;;;5.63;1.02;;;;;;;3.88;75.66;99760.97;4984362;28;20457;-59
2023/01/10 01:16:02;;;;;;;9.10;1.58;;;;;;;3.88;75.85;99768.66;4985212;28;20055;-59
2023/01/10 01:18:29;;;;;;;11.98;2.15;;;;;;;3.86;75.71;99772.03;4985851;28;20137;-59
2023/01/10 01:20:56;;;;;;;12.65;1.30;;;;;;;3.86;75.85;99773.75;4984595;28;20109;-59
2023/01/10 01:23:23;;;;;;;14.93;1.35;;;;;;;3.85;75.75;99785.69;4982728;28;20750;-59
2023/01/10 01:25:51;;;;;;;6.47;1.02;;;;;;;3.85;75.80;99785.69;4978776;28;20072;-59
2023/01/10 01:28:19;;;;;;;6.60;0.77;;;;;;;3.83;76.11;99786.50;4979415;28;20058;-59
2023/01/10 01:30:45;;;;;;;18.27;1.80;;;;;;;3.81;76.01;99794.16;4979409;28;20083;-59
2023/01/10 01:33:12;;;;;;;11.32;1.88;;;;;;;3.78;75.54;99799.22;4982607;28;20042;-59
2023/01/10 01:35:44;;;;;;;10.70;1.48;;;;;;;3.77;75.79;99801.72;4984137;28;20500;-59
2023/01/10 01:38:11;;;;;;;9.13;0.73;;;;;;;3.75;76.20;99791.47;4978215;28;20060;-59
2023/01/10 01:40:40;;;;;;;11.93;1.23;;;;;;;3.76;75.86;99794.88;4981294;28;20042;-60
2023/01/10 01:43:22;;;;;;;9.18;1.25;;;;;;;3.72;75.61;99789.69;4978956;28;20055;-60
2023/01/10 01:45:49;;;;;;;9.38;1.15;;;;;;;3.73;76.10;99785.44;4983342;28;20529;-59
2023/01/10 01:56:20;;;;;;;9.57;2.17;;;;;;;3.76;76.17;99790.66;4999223;28;20425;-58
2023/01/10 02:01:28;;;;;;;9.35;1.33;;;;;;;3.78;76.20;99790.69;5078628;27;20432;-59
2023/01/10 02:04:07;;;;;;;20.40;1.25;;;;;;;3.76;76.16;99784.66;5052727;28;20064;-59
2023/01/10 02:06:33;;;;;;;12.70;1.38;;;;;;;3.75;75.95;99794.00;5049528;28;20539;-59
2023/01/10 02:09:17;;;;;;;12.75;0.98;;;;;;;3.76;76.20;99805.13;5050753;28;20056;-57
2023/01/10 02:11:44;;;;;;;16.13;1.48;;;;;;;3.77;76.52;99812.84;5089097;28;20883;-59
2023/01/10 02:14:13;;;;;;;11.18;0.98;;;;;;;3.79;75.67;99810.34;5090236;28;20048;-59
2023/01/10 02:16:39;;;;;;;6.80;0.60;;;;;;;3.79;76.25;99811.22;5088823;28;20047;-59
2023/01/10 02:19:26;;;;;;;11.52;1.60;;;;;;;3.81;76.61;99816.34;5091213;28;20067;-59
2023/01/10 02:25:03;;;;;;;6.82;1.05;;;;;;;3.85;76.63;99818.16;5030386;28;20407;-59
2023/01/10 02:27:41;;;;;;;;;;;;;;;3.81;76.28;99813.78;5016714;28;20054;-59
2023/01/10 02:30:34;;;;;;;7.03;1.75;;;;;;;3.84;75.80;99817.28;5013926;28;20369;-59
2023/01/10 02:38:54;;;;;;;8.40;1.00;;;;;;;3.90;75.88;99813.13;5054654;27;20419;-59
2023/01/10 02:44:10;;;;;;;12.32;2.25;;;;;;;3.94;76.13;99809.78;5023373;27;20930;-59
2023/01/10 02:46:39;;;;;;;11.43;2.13;;;;;;;3.93;76.28;99808.94;4999986;28;20050;-59
2023/01/10 02:49:06;;;;;;;5.15;1.50;;;;;;;3.97;76.26;99808.16;5000178;28;20046;-59
2023/01/10 02:51:32;;;;;;;6.18;1.45;;;;;;;3.96;76.35;99818.38;4999816;28;20232;-59
2023/01/10 03:11:02;;;;;;;14.75;1.30;;;;;;;4.27;76.42;99803.59;5021444;28;20417;-59
2023/01/10 03:13:36;;;;;;;9.77;1.15;;;;;;;4.31;75.65;99805.38;5016063;28;20053;-59
2023/01/10 03:16:07;;;;;;;4.80;0.65;;;;;;;4.33;76.29;99803.69;5017525;28;20124;-59
2023/01/10 03:18:41;;;;;;;7.88;1.00;;;;;;;4.35;75.89;99791.78;5017250;28;20049;-59
2023/01/10 03:21:10;;;;;;;10.35;0.68;;;;;;;4.37;76.03;99790.13;5017710;28;20099;-59
2023/01/10 03:23:37;;;;;;;8.13;1.23;;;;;;;4.40;76.21;99783.31;5015019;28;20104;-59
2023/01/10 03:26:05;;;;;;;16.55;1.45;;;;;;;4.41;75.65;99782.47;5024237;28;20065;-60
2023/01/10 03:28:43;;;;;;;5.60;0.65;;;;;;;4.42;76.27;99782.50;5033634;28;20107;-59
2023/01/10 03:31:25;;;;;;;7.95;0.55;;;;;;;4.43;75.87;99783.38;5043990;28;20084;-59
2023/01/10 03:33:51;;;;;;;10.18;0.88;;;;;;;4.44;75.88;99779.97;5032273;28;20049;-59
2023/01/10 03:39:42;;;;;;;9.73;1.10;;;;;;;4.46;75.26;99776.59;5029417;28;20879;-59
2023/01/10 03:42:20;;;;;;;9.15;1.63;;;;;;;4.48;76.00;99777.50;4997796;28;20494;-59
2023/01/10 03:45:05;;;;;;;11.48;1.45;;;;;;;4.49;75.63;99768.06;4999573;28;20490;-59
2023/01/10 03:50:26;;;;;;;6.10;1.33;;;;;;;4.49;76.24;99778.34;5043394;27;20413;-59
2023/01/10 03:52:54;;;;;;;9.77;1.30;;;;;;;4.52;75.81;99780.13;5036145;28;20145;-59
2023/01/10 03:55:24;;;;;;;10.63;1.13;;;;;;;4.55;75.84;99777.56;5034500;28;20093;-60
2023/01/10 03:57:51;;;;;;;9.27;1.42;;;;;;;4.56;76.23;99780.19;5031536;28;20158;-59
2023/01/10 04:00:18;;;;;;;11.85;1.65;;;;;;;4.55;75.61;99778.44;5035415;28;20148;-59
2023/01/10 04:02:45;;;;;;;13.32;1.15;;;;;;;4.56;76.07;99790.44;5037078;28;20057;-59
2023/01/10 04:05:11;;;;;;;5.28;1.40;;;;;;;4.58;76.08;99793.91;5033971;28;20120;-59
2023/01/10 04:07:39;;;;;;;7.55;1.13;;;;;;;4.59;75.47;99777.66;5034509;28;20091;-59
2023/01/10 04:10:07;;;;;;;11.23;1.83;;;;;;;4.59;76.04;99775.09;5033171;28;20065;-59
2023/01/10 04:12:34;;;;;;;10.82;2.00;;;;;;;4.56;75.54;99764.78;5035557;28;20061;-59
2023/01/10 04:15:01;;;;;;;7.75;1.23;;;;;;;4.56;75.40;99759.66;5037739;28;20052;-59
2023/01/10 04:17:28;;;;;;;6.80;2.45;;;;;;;4.61;75.20;99750.34;5037199;28;20049;-59
2023/01/10 04:19:55;;;;;;;15.30;1.35;;;;;;;4.57;75.56;99756.28;5034330;28;20509;-59
2023/01/10 04:22:21;;;;;;;12.45;1.58;;;;;;;4.59;75.87;99754.59;5028609;28;20057;-58
2023/01/10 04:24:50;;;;;;;10.40;0.88;;;;;;;4.62;75.73;99744.38;5034757;28;20049;-60
2023/01/10 04:27:17;;;;;;;15.60;2.03;;;;;;;4.64;75.32;99752.09;5036975;28;20106;-59
2023/01/10 04:29:44;;;;;;;8.35;2.05;;;;;;;4.61;74.91;99760.63;5045425;28;20673;-59
2023/01/10 04:32:10;;;;;;;8.15;0.93;;;;;;;4.61;74.91;99758.06;5055384;28;20068;-60
2023/01/10 04:34:37;;;;;;;10.05;1.20;;;;;;;4.63;75.45;99751.22;5038973;28;20045;-59
2023/01/10 04:37:04;;;;;;;4.57;1.05;;;;;;;4.61;74.96;99737.53;5041787;28;20076;-59
2023/01/10 04:39:30;;;;;;;6.40;0.85;;;;;;;4.62;75.23;99744.38;5057576;28;20068;-59
2023/01/10 04:41:57;;;;;;;8.73;1.25;;;;;;;4.60;75.16;99733.22;5052721;28;20825;-59
2023/01/10 04:44:23;;;;;;;8.40;1.02;;;;;;;4.63;74.95;99730.69;5055248;28;20075;-59
2023/01/10 04:46:50;;;;;;;5.53;0.93;;;;;;;4.63;75.13;99725.56;5035780;28;20067;-60
2023/01/10 04:49:17;;;;;;;10.35;1.05;;;;;;;4.62;75.38;99713.59;5052850;28;20080;-59
2023/01/10 04:51:43;;;;;;;13.95;1.50;;;;;;;4.64;75.44;99716.19;5048661;28;20052;-59
2023/01/10 04:54:10;;;;;;;8.60;1.33;;;;;;;4.65;75.76;99728.16;5040055;28;20072;-59
2023/01/10 04:56:36;;;;;;;9.68;1.52;;;;;;;4.67;75.45;99715.38;5054955;28;20072;-59
2023/01/10 04:59:05;;;;;;;5.22;1.15;;;;;;;4.66;75.74;99718.78;5043342;28;20037;-59
2023/01/10 05:01:34;;;;;;;8.38;1.27;;;;;;;4.67;76.40;99721.38;5033567;28;20785;-60
2023/01/10 05:04:02;;;;;;;16.05;2.10;;;;;;;4.69;75.64;99713.72;5044680;28;20044;-59
2023/01/10 05:06:28;;;;;;;5.95;1.20;;;;;;;4.63;76.26;99715.31;5041583;28;20056;-59
2023/01/10 05:08:56;;;;;;;9.05;2.40;;;;;;;4.70;76.96;99720.56;5042862;28;20146;-59
2023/01/10 05:11:22;;;;;;;9.35;1.88;;;;;;;4.72;76.60;99703.47;5018584;28;20139;-59
2023/01/10 05:13:50;;;;;;;14.77;1.40;;;;;;;4.74;76.05;99707.81;5036505;28;20041;-59
2023/01/10 05:16:17;;;;;;;19.38;2.10;;;;;;;4.78;76.70;99702.69;5028093;28;20057;-59
2023/01/10 05:18:44;;;;;;;8.70;1.38;;;;;;;4.82;76.50;99714.72;5019857;28;20084;-59
2023/01/10 05:21:12;;;;;;;7.18;0.88;;;;;;;4.82;76.21;99709.59;5014550;28;20089;-59
2023/01/10 05:23:39;;;;;;;6.40;1.08;;;;;;;4.80;76.56;99704.44;5028757;28;20046;-59
2023/01/10 05:26:08;;;;;;;11.80;1.52;;;;;;;4.80;76.73;99717.28;5037165;28;20103;-59
2023/01/10 05:28:36;;;;;;;6.88;1.13;;;;;;;4.83;76.41;99707.06;5025042;28;20141;-59
2023/01/10 05:31:05;;;;;;;6.47;1.63;;;;;;;4.80;76.31;99695.91;5028998;28;20061;-59
2023/01/10 05:33:32;;;;;;;7.95;1.20;;;;;;;4.83;76.92;99686.53;5035689;28;20058;-60
2023/01/10 05:36:01;;;;;;;7.40;0.75;;;;;;;4.86;77.34;99684.03;5020221;28;20152;-59
2023/01/10 05:38:29;;;;;;;9.25;1.50;;;;;;;4.89;76.47;99676.38;5042631;28;20049;-59
2023/01/10 05:40:57;;;;;;;8.98;1.05;;;;;;;4.91;76.21;99667.81;5026219;28;20139;-59
2023/01/10 05:43:25;;;;;;;16.45;0.98;;;;;;;4.89;76.71;99663.53;5035945;28;20041;-58
2023/01/10 05:45:52;;;;;;;12.35;1.58;;;;;;;4.95;76.12;99664.47;5031278;28;20107;-61
2023/01/10 05:48:19;;;;;;;7.55;1.42;;;;;;;4.97;76.85;99668.75;5022937;28;20049;-59
2023/01/10 05:50:47;;;;;;;14.60;1.55;;;;;;;4.96;76.66;99656.78;5045569;28;20538;-59
2023/01/10 05:53:14;;;;;;;4.18;1.13;;;;;;;4.99;75.96;99656.81;5021203;28;20065;-59
2023/01/10 05:55:41;;;;;;;6.20;0.98;;;;;;;4.99;76.16;99645.69;5019679;28;20038;-59
2023/01/10 05:58:09;;;;;;;6.18;0.80;;;;;;;4.98;76.07;99643.97;5017464;28;20046;-59
2023/01/10 06:00:38;;;;;;;6.70;0.98;;;;;;;4.93;76.36;99631.06;5023180;28;20552;-59
2023/01/10 06:03:05;;;;;;;9.70;1.40;;;;;;;4.99;77.01;99640.56;5034920;28;20061;-59
2023/01/10 06:05:32;;;;;;;6.25;1.20;;;;;;;4.99;76.50;99635.41;5016177;28;20133;-59
2023/01/10 06:07:59;;;;;;;7.82;0.95;;;;;;;5.07;76.95;99627.84;5033667;28;20075;-59
2023/01/10 06:10:25;;;;;;;5.20;0.70;;;;;;;5.10;76.67;99639.00;5030020;28;20505;-59
2023/01/10 06:12:52;;;;;;;13.52;2.08;;;;;;;5.09;76.90;99638.97;5025987;28;20508;-59
2023/01/10 06:15:19;;;;;;;5.15;1.23;;;;;;;5.11;76.06;99643.31;5041702;28;20044;-59
2023/01/10 06:17:46;;;;;;;7.28;1.35;;;;;;;5.13;76.10;99631.34;5036428;28;20133;-59
2023/01/10 06:20:12;;;;;;;2.78;0.93;;;;;;;5.11;76.73;99635.59;5040995;28;20065;-59
2023/01/10 06:22:41;;;;;;;10.55;1.10;;;;;;;5.11;76.49;99635.59;5026996;28;20077;-59
2023/01/10 06:25:09;;;;;;;12.63;1.20;;;;;;;5.13;76.34;99628.78;5031114;28;20504;-59
2023/01/10 06:27:39;;;;;;;6.43;1.98;;;;;;;5.10;76.83;99622.75;5038305;28;20077;-59
2023/01/10 06:30:07;;;;;;;9.00;0.95;;;;;;;5.09;77.25;99619.31;5025857;28;20053;-59
2023/01/10 06:32:35;;;;;;;9.52;1.33;;;;;;;5.08;77.56;99624.41;5040714;28;20550;-60
2023/01/10 06:35:01;;;;;;;10.77;1.58;;;;;;;5.05;77.38;99617.53;5044429;28;20045;-59
2023/01/10 06:37:28;;;;;;;4.20;0.82;;;;;;;5.01;78.43;99610.66;5029067;28;20053;-59
2023/01/10 06:39:54;;;;;;;3.45;1.05;;;;;;;5.01;78.35;99602.94;5027660;28;20502;-59
2023/01/10 06:42:21;;;;;;;4.38;1.85;;;;;;;5.01;78.30;99602.94;5041809;28;20049;-59
2023/01/10 06:44:48;;;;;;;6.43;0.98;;;;;;;4.98;78.85;99593.50;5038607;28;20098;-59
2023/01/10 06:47:14;;;;;;;9.00;1.02;;;;;;;5.01;77.90;99597.81;5019976;28;20084;-58
2023/01/10 06:49:41;;;;;;;10.95;0.93;;;;;;;4.97;79.05;99591.75;5035862;28;20037;-59
2023/01/10 06:52:08;;;;;;;9.93;1.25;;;;;;;4.95;79.49;99584.88;5031265;28;20104;-59
2023/01/10 06:54:34;;;;;;;6.25;0.88;;;;;;;4.96;79.31;99573.81;5018849;28;20042;-59
2023/01/10 06:57:01;;;;;;;3.83;1.02;;;;;;;4.94;79.34;99578.03;5021583;28;20085;-58
2023/01/10 06:59:27;;;;;;;7.20;1.98;;;;;;;4.97;78.69;99565.25;5019075;28;20560;-58
2023/01/10 07:01:54;;;;;;;6.45;1.00;;;;;;;4.97;79.39;99560.13;5014697;28;20037;-58
2023/01/10 07:04:21;;;;;;;8.88;1.70;;;;;;;4.94;79.90;99554.94;5011835;28;20237;-58
2023/01/10 07:06:47;;;;;;;5.88;0.73;;;;;;;4.94;79.95;99549.81;5021975;28;20542;-58
2023/01/10 07:09:14;;;;;;;7.45;0.98;;;;;;;4.91;80.22;99535.25;5032920;28;20044;-58
2023/01/10 07:11:41;;;;;;;7.45;1.15;;;;;;;4.87;79.83;99536.88;5017471;28;20053;-59
2023/01/10 07:14:08;;;;;;;3.95;0.93;;;;;;;4.86;80.42;99532.59;5034836;28;20077;-58
2023/01/10 07:16:35;;;;;;;4.38;1.13;;;;;;;4.88;80.25;99523.25;5033193;28;20675;-58
2023/01/10 07:19:01;;;;;;;6.80;1.13;;;;;;;4.88;80.85;99515.53;5041241;28;20085;-59
2023/01/10 07:21:28;;;;;;;5.28;0.82;;;;;;;4.91;80.85;99513.84;5037648;28;20076;-58
2023/01/10 07:23:55;;;;;;;7.78;2.08;;;;;;;4.91;81.19;99511.28;5015834;28;20060;-57
2023/01/10 07:26:23;;;;;;;10.60;1.70;;;;;;;4.92;81.29;99510.41;5024764;28;20405;-58
2023/01/10 07:28:50;;;;;;;10.45;2.67;;;;;;;4.89;81.54;99499.28;5032184;28;20447;-58
2023/01/10 07:31:19;;;;;;;3.92;1.13;;;;;;;4.89;81.38;99489.03;5036152;28;20041;-58
2023/01/10 07:33:46;;;;;;;5.45;1.08;;;;;;;4.83;81.18;99476.13;5026822;28;20040;-58
2023/01/10 07:36:13;;;;;;;10.90;1.70;;;;;;;4.88;81.85;99473.59;5017374;28;20100;-57
2023/01/10 07:38:39;;;;;;;4.63;1.00;;;;;;;4.92;80.91;99459.97;5038578;28;20106;-58
2023/01/10 07:41:06;;;;;;;8.60;1.25;;;;;;;4.86;81.56;99455.63;5036536;28;20142;-58
2023/01/10 07:43:33;;;;;;;3.35;1.20;;;;;;;4.84;81.41;99452.19;5028093;28;20057;-58
2023/01/10 07:46:03;;;;;;;4.90;1.08;;;;;;;4.85;81.97;99443.66;5016121;28;20110;-58
2023/01/10 07:48:30;;;;;;;8.52;0.77;;;;;;;4.84;81.90;99436.81;5034598;28;20075;-58
2023/01/10 07:50:58;;;;;;;8.60;0.82;;;;;;;4.83;82.69;99424.78;5008905;28;20107;-58
2023/01/10 07:53:27;;;;;;;4.30;0.75;;;;;;;4.88;82.23;99427.41;5012920;28;20057;-58
2023/01/10 07:55:57;;;;;;;4.97;1.15;;;;;;;4.84;82.95;99416.28;5028250;28;20056;-59
2023/01/10 07:58:24;;;;;;;5.07;0.98;;;;;;;4.88;82.06;99405.19;5033000;28;20540;-58
2023/01/10 08:00:51;;;;;;;4.60;0.82;;;;;;;4.85;83.00;99400.03;5025316;28;20588;-59
2023/01/10 08:03:18;;;;;;;1.42;0.35;;;;;;;4.81;83.09;99398.28;5017161;28;20077;-58
2023/01/10 08:05:45;;;;;;;6.60;0.93;;;;;;;4.88;83.72;99388.91;5033080;28;20073;-59
2023/01/10 08:08:12;;;;;;;7.15;1.23;;;;;;;4.88;82.88;99396.63;5014008;28;20132;-58
2023/01/10 08:10:39;;;;;;;2.90;1.27;;;;;;;4.86;83.64;99381.22;5012916;28;20107;-58
2023/01/10 08:13:06;;;;;;;7.28;1.17;;;;;;;4.88;84.15;99366.69;5023194;28;20049;-58
2023/01/10 08:15:45;;;;;;;1.92;0.73;;;;;;;4.89;83.15;99354.72;5034384;28;20133;-58
2023/01/10 08:18:13;;;;;;;4.82;1.10;;;;;;;4.89;83.85;99347.88;5015322;28;20073;-58
2023/01/10 08:20:40;;;;;;;8.38;0.98;;;;;;;4.91;84.55;99347.03;5034908;28;20077;-58
2023/01/10 08:23:06;;;;;;;6.47;0.52;;;;;;;4.95;84.31;99341.06;5015280;28;20065;-58
2023/01/10 08:25:33;;;;;;;8.43;1.77;;;;;;;4.90;85.27;99333.34;5007927;28;20053;-58
2023/01/10 08:28:00;;;;;;;2.58;0.68;;;;;;;4.93;85.76;99329.94;5010529;28;20479;-59
2023/01/10 08:30:26;;;;;;;4.53;0.73;;;;;;;4.96;85.13;99322.28;5007853;28;20057;-59
2023/01/10 08:32:53;;;;;;;7.82;0.95;;;;;;;4.98;85.76;99318.00;5005227;28;20091;-58
2023/01/10 08:35:20;;;;;;;4.78;1.08;;;;;;;5.00;86.00;99318.91;5017945;28;20068;-58
2023/01/10 08:37:47;;;;;;;4.80;0.98;;;;;;;5.04;85.53;99309.50;5018448;28;20045;-57
2023/01/10 08:40:13;;;;;;;13.02;1.58;;;;;;;5.06;86.48;99308.66;5031142;28;20083;-57
2023/01/10 08:42:40;;;;;;;5.10;0.80;;;;;;;5.13;86.75;99315.56;5036715;28;20057;-58
2023/01/10 08:45:07;;;;;;;2.67;0.55;;;;;;;5.16;86.80;99301.03;5019576;28;20072;-57
2023/01/10 08:47:34;;;;;;;5.13;1.45;;;;;;;5.20;86.67;99290.78;5039905;28;20504;-58
2023/01/10 08:50:01;;;;;;;4.22;0.63;;;;;;;5.27;86.90;99296.84;5046552;28;20528;-59
2023/01/10 08:52:28;;;;;;;4.18;1.67;;;;;;;5.30;87.05;99278.88;5030306;28;20436;-58
2023/01/10 08:54:57;;;;;;;3.65;1.05;;;;;;;5.33;86.53;99265.22;5030930;28;20076;-58
2023/01/10 08:57:24;;;;;;;3.63;1.08;;;;;;;5.33;87.56;99266.06;5034737;28;20052;-58
2023/01/10 08:59:51;;;;;;;2.70;0.70;;;;;;;5.39;87.61;99265.22;5018100;28;20599;-59
2023/01/10 09:02:18;;;;;;;2.47;0.55;;;;;;;5.45;87.57;99254.13;5038159;28;20045;-58
2023/01/10 09:04:45;;;;;;;5.10;0.88;;;;;;;5.50;86.81;99239.59;5023853;28;20053;-58
2023/01/10 09:07:12;;;;;;;3.88;0.65;;;;;;;5.50;87.64;99242.16;5023477;28;20099;-58
2023/01/10 09:09:38;;;;;;;1.90;0.63;;;;;;;5.53;88.00;99231.91;5035273;28;20592;-59
2023/01/10 09:12:53;;;;;;;5.60;0.95;;;;;;;5.59;87.39;99224.25;5020750;28;20049;-58
2023/01/10 09:14:52;;;;;;;3.05;0.63;;;;;;;5.65;87.08;99225.97;5039458;28;20076;-58
2023/01/10 09:17:19;;;;;;;6.10;0.47;;;;;;;5.70;86.64;99213.13;5041640;28;20076;-58
2023/01/10 09:19:45;;;;;;;5.20;2.17;;;;;;;5.70;86.74;99203.72;5026171;28;20057;-59
2023/01/10 09:22:12;;;;;;;3.28;1.20;;;;;;;5.73;87.06;99197.72;5027462;28;20052;-58
2023/01/10 09:24:40;;;;;;;4.03;0.75;;;;;;;5.74;86.39;99199.47;5039714;28;20048;-58
2023/01/10 09:27:07;;;;;;;3.20;1.05;;;;;;;5.78;87.12;99180.63;5040117;28;20045;-58
2023/01/10 09:29:33;;;;;;;2.20;0.82;;;;;;;5.85;87.84;99172.09;5022253;28;20050;-59
2023/01/10 09:32:00;;;;;;;2.50;1.23;;;;;;;5.90;86.30;99175.53;5033390;28;20501;-59
2023/01/10 09:34:27;;;;;;;0.77;0.68;;;;;;;5.90;87.82;99166.94;5020633;28;20046;-58
2023/01/10 09:36:53;;;;;;;3.65;0.95;;;;;;;5.96;86.77;99158.38;5015078;28;20069;-59
2023/01/10 09:39:20;;;;;;;1.88;0.60;;;;;;;6.00;87.73;99157.53;5027639;28;20084;-59
2023/01/10 09:44:43;;;;;;;2.55;1.33;;;;;;;6.10;87.52;99156.72;5047738;27;20408;-59
2023/01/10 09:47:49;;;;;;;2.95;1.40;;;;;;;6.15;87.05;99144.72;5040398;28;20053;-59
2023/01/10 09:50:56;;;;;;;3.83;1.60;;;;;;;6.19;87.26;99149.88;5047528;28;20057;-59
2023/01/10 09:53:26;;;;;;;1.30;0.40;;;;;;;6.25;87.17;99119.88;5029699;28;20624;-59
2023/01/10 09:55:56;;;;;;;1.13;1.02;;;;;;;6.29;87.03;99108.72;5037260;28;20707;-59
2023/01/10 09:58:27;;;;;;;2.83;1.20;;;;;;;6.35;87.75;99105.28;5063810;28;20052;-59
2023/01/10 10:00:57;;;;;;;3.92;2.03;;;;;;;6.37;87.00;99087.28;5079107;28;20374;-59
2023/01/10 10:06:13;;;;;;;1.73;0.32;;;;;;;6.40;87.59;99067.59;5033967;28;20748;-60
2023/01/10 10:08:42;;;;;;;0.40;0.28;;;;;;;6.47;87.84;99052.13;4982436;28;20105;-60
2023/01/10 10:25:45;;;;;;;1.10;0.22;;;;;;;6.63;87.54;99022.06;5032486;28;20399;-54
2023/01/10 10:28:36;;;;;;;0.60;0.35;;;;;;;6.68;87.29;98985.19;5012847;28;20103;-59
2023/01/10 10:39:19;;;;;;;2.55;2.35;;;;;;;6.78;87.54;98987.69;5055228;27;20400;-59
2023/01/10 10:41:51;;;;;;;1.98;1.88;;;;;;;6.84;87.91;98990.25;5002687;28;20057;-58
2023/01/10 10:46:58;;;;;;;0.80;0.55;;;;;;;6.83;88.07;98983.41;5019672;27;20798;-59
2023/01/10 10:52:11;;;;;;;1.67;1.58;;;;;;;6.88;87.33;98953.34;5052483;27;20400;-59
2023/01/10 10:54:38;;;;;;;2.33;2.20;;;;;;;6.95;88.16;98972.19;5038561;28;20041;-59
2023/01/10 10:57:04;;;;;;;1.65;1.55;;;;;;;6.99;87.06;98952.44;5040475;28;20055;-59
2023/01/10 10:59:31;;;;;;;2.15;1.98;;;;;;;7.02;87.98;98926.66;5036811;28;21694;-59
2023/01/10 11:01:59;;;;;;;1.58;1.48;;;;;;;7.03;88.82;98938.69;5034615;28;20136;-59
2023/01/10 11:04:27;;;;;;;1.70;1.60;;;;;;;7.06;87.65;98933.50;5041170;28;20397;-59
2023/01/10 11:06:54;;;;;;;1.65;1.55;;;;;;;7.11;87.65;98931.75;5040740;28;20068;-59
2023/01/10 11:12:02;;;;;;;0.57;0.50;;;;;;;7.19;88.84;98914.53;5059005;28;20403;-59
2023/01/10 11:14:50;;;;;;;0.93;0.52;;;;;;;7.24;88.09;98911.06;5002313;28;20053;-58
2023/01/10 11:17:39;;;;;;;1.17;0.63;;;;;;;7.31;88.10;98908.44;4999202;28;20553;-59
2023/01/10 11:20:14;;;;;;;0.93;0.55;;;;;;;7.40;88.52;98891.19;4988717;28;20092;-59
2023/01/10 11:22:52;;;;;;;1.05;0.85;;;;;;;7.42;88.46;98882.59;4986546;28;20392;-59
2023/01/10 11:25:21;;;;;;;1.35;0.93;;;;;;;7.51;88.48;98878.22;4991190;28;20379;-59
2023/01/10 11:30:30;;;;;;;3.20;1.65;;;;;;;7.88;87.67;98870.13;5042873;27;20398;-59
2023/01/10 11:35:37;;;;;;;1.33;1.08;;;;;;;7.79;87.98;98862.47;5080563;27;20412;-59
2023/01/10 11:38:23;;;;;;;5.50;0.90;;;;;;;7.85;87.65;98862.41;5044364;28;20186;-59
2023/01/10 11:40:57;;;;;;;0.75;0.47;;;;;;;7.81;88.28;98858.16;5041000;28;20052;-59
2023/01/10 11:43:32;;;;;;;3.70;1.30;;;;;;;7.90;87.83;98854.66;5038466;28;20091;-59
2023/01/10 11:51:24;;;;;;;1.10;0.75;;;;;;;8.04;89.02;98821.78;5051760;27;20406;-60
2023/01/10 11:53:58;;;;;;;1.67;0.95;;;;;;;8.16;88.12;98825.97;5011409;28;20042;-59
2023/01/10 11:56:29;;;;;;;1.15;0.70;;;;;;;8.25;87.94;98811.25;5010111;28;20053;-60
2023/01/10 11:58:58;;;;;;;1.38;0.68;;;;;;;8.28;87.80;98798.31;5013762;28;20096;-59
2023/01/10 12:01:33;;;;;;;1.40;1.00;;;;;;;8.38;87.94;98805.06;5011503;28;20125;-60
2023/01/10 12:04:01;;;;;;;1.13;0.77;;;;;;;8.44;88.00;98799.78;5014207;28;20057;-59
2023/01/10 12:06:29;;;;;;;1.08;0.70;;;;;;;8.51;88.00;98786.81;5008966;28;20056;-60
2023/01/10 12:08:56;;;;;;;1.10;0.75;;;;;;;8.60;88.31;98781.53;5011159;28;20085;-60
2023/01/10 12:11:32;;;;;;;0.80;0.52;;;;;;;8.67;87.95;98778.00;5007149;28;20053;-60
2023/01/10 12:14:00;;;;;;;0.85;0.45;;;;;;;8.72;88.32;98741.78;5014099;28;20342;-60
2023/01/10 12:16:30;;;;;;;1.00;0.40;;;;;;;8.83;88.41;98739.00;5005455;28;20077;-60
2023/01/10 12:19:01;;;;;;;1.20;0.52;;;;;;;8.87;87.97;98731.19;5009753;28;20358;-60
2023/01/10 12:24:14;;;;;;;1.80;0.95;;;;;;;9.03;88.15;98727.50;5052174;27;20732;-60
2023/01/10 12:26:41;;;;;;;1.05;0.88;;;;;;;9.11;88.13;98717.88;5015322;28;20054;-59
2023/01/10 12:29:14;;;;;;;5.15;2.20;;;;;;;9.15;88.65;98716.94;5016415;28;20096;-60
2023/01/10 12:31:40;;;;;;;3.80;1.60;;;;;;;9.26;88.00;98702.09;5010505;28;20060;-60
2023/01/10 12:34:29;;;;;;;2.70;1.75;;;;;;;9.35;88.00;98692.44;5015036;28;20140;-60
2023/01/10 12:37:21;;;;;;;4.85;2.05;;;;;;;9.44;87.82;98678.50;5018869;28;20068;-60
2023/01/10 12:39:58;;;;;;;2.53;1.58;;;;;;;9.56;88.31;98682.56;5011247;28;20049;-60
2023/01/10 12:45:41;;;;;;;4.45;1.05;;;;;;;9.73;88.22;98670.13;5013268;28;20129;-60
2023/01/10 12:50:52;;;;;;;5.00;0.85;;;;;;;9.94;88.44;98672.28;5037811;28;21294;-60
2023/01/10 12:56:03;;;;;;;3.90;1.23;;;;;;;10.16;87.33;98668.34;5021890;27;20409;-60
2023/01/10 13:01:31;;;;;;;2.75;1.60;;;;;;;10.29;87.77;98666.31;5017691;28;20396;-60
2023/01/10 13:04:04;;;;;;;2.63;2.22;;;;;;;10.40;87.21;98658.28;4988395;28;20054;-60
2023/01/10 13:06:35;;;;;;;2.97;1.77;;;;;;;10.48;87.40;98658.13;4987700;28;20054;-60
2023/01/10 13:09:07;;;;;;;3.65;1.80;;;;;;;10.57;87.27;98630.31;4988144;28;20068;-59
2023/01/10 13:14:38;;;;;;;4.07;0.70;;;;;;;10.70;87.20;98631.69;5015017;28;20976;-61
2023/01/10 13:20:28;;;;;;;1.20;0.60;;;;;;;10.86;86.56;98631.28;5017780;27;20740;-60
2023/01/10 13:22:57;;;;;;;3.22;0.68;;;;;;;10.91;87.46;98626.84;4997207;28;20108;-61
2023/01/10 13:25:34;;;;;;;2.35;0.85;;;;;;;10.94;87.16;98629.31;4996322;28;20056;-61
2023/01/10 13:28:05;;;;;;;1.13;0.63;;;;;;;11.00;86.56;98639.53;4997789;28;20054;-61
2023/01/10 13:30:36;;;;;;;3.25;0.50;;;;;;;11.00;85.92;98634.34;4996939;28;20053;-60
2023/01/10 13:33:06;;;;;;;3.25;0.55;;;;;;;11.04;86.87;98635.97;5000998;28;20690;-60
2023/01/10 13:35:40;;;;;;;5.15;0.40;;;;;;;11.04;87.06;98635.97;4996450;28;20056;-61
2023/01/10 13:40:58;;;;;;;3.22;0.40;;;;;;;11.13;86.45;98644.38;5041096;27;20405;-61
2023/01/10 13:43:33;;;;;;;1.85;0.40;;;;;;;11.16;85.71;98636.50;5047560;28;20056;-61
2023/01/10 13:51:30;;;;;;;2.88;1.42;;;;;;;11.23;85.70;98630.28;5042639;28;20408;-61
2023/01/10 13:54:03;;;;;;;2.88;1.52;;;;;;;11.29;86.17;98621.47;4997320;28;20057;-61
2023/01/10 14:02:31;;;;;;;0.70;0.30;;;;;;;11.35;85.62;98617.84;4979525;28;20046;-61